createdAt,value
2022-10-18T00:01:58.926Z,66.36
2022-10-18T00:04:00.647Z,66.50
2022-10-18T00:06:03.435Z,66.24
2022-10-18T00:08:05.259Z,66.57
2022-10-18T00:10:07.678Z,66.91
2022-10-18T00:12:09.412Z,66.63
2022-10-18T00:14:11.208Z,66.88
2022-10-18T00:16:17.121Z,66.77
2022-10-18T00:18:19.684Z,66.51
2022-10-18T00:20:21.383Z,66.61
2022-10-18T00:22:23.274Z,66.86
2022-10-18T00:24:24.887Z,66.58
2022-10-18T00:26:29.002Z,67.02
2022-10-18T00:28:31.226Z,66.49
2022-10-18T00:30:32.975Z,66.65
2022-10-18T00:32:42.226Z,67.12
2022-10-18T00:34:43.883Z,67.07
2022-10-18T00:36:45.717Z,67.41
2022-10-18T00:38:48.407Z,67.37
2022-10-18T00:40:50.025Z,67.75
2022-10-18T00:42:51.717Z,67.49
2022-10-18T00:45:04.998Z,67.42
2022-10-18T00:47:11.017Z,67.45
2022-10-18T00:49:19.639Z,67.25
2022-10-18T00:51:23.107Z,67.65
2022-10-18T00:53:30.387Z,67.61
2022-10-18T00:55:34.163Z,67.98
2022-10-18T00:57:36.825Z,68.15
2022-10-18T00:59:38.759Z,68.57
2022-10-18T01:01:40.381Z,68.28
2022-10-18T01:03:42.650Z,68.36
2022-10-18T01:05:47.061Z,68.43
2022-10-18T01:08:16.001Z,68.41
2022-10-18T01:10:42.304Z,68.67
2022-10-18T01:13:14.441Z,68.65
2022-10-18T01:15:29.283Z,68.33
2022-10-18T01:17:59.127Z,68.62
2022-10-18T01:20:00.701Z,68.85
2022-10-18T01:22:09.297Z,69.03
2022-10-18T01:24:36.498Z,68.86
2022-10-18T01:26:57.941Z,68.91
2022-10-18T01:29:09.036Z,68.97
2022-10-18T01:31:16.680Z,68.80
2022-10-18T01:33:32.372Z,69.00
2022-10-18T01:35:42.937Z,69.25
2022-10-18T01:37:47.464Z,69.24
2022-10-18T01:39:53.937Z,69.10
2022-10-18T01:41:58.551Z,68.99
2022-10-18T01:44:03.146Z,69.33
2022-10-18T01:46:05.924Z,69.27
2022-10-18T01:48:09.107Z,69.50
2022-10-18T01:50:10.746Z,69.29
2022-10-18T01:52:16.515Z,69.43
2022-10-18T01:54:30.012Z,69.73
2022-10-18T01:57:00.394Z,69.32
2022-10-18T01:59:23.704Z,69.63
2022-10-18T02:01:34.034Z,69.88
2022-10-18T02:03:39.992Z,70.06
2022-10-18T02:05:54.592Z,70.00
2022-10-18T02:08:22.774Z,70.12
2022-10-18T02:10:41.454Z,70.26
2022-10-18T02:13:02.933Z,70.10
2022-10-18T02:15:31.087Z,69.76
2022-10-18T02:17:50.881Z,69.91
2022-10-18T02:19:55.685Z,69.96
2022-10-18T02:21:59.259Z,69.67
2022-10-18T02:24:02.676Z,69.89
2022-10-18T02:26:04.606Z,69.86
2022-10-18T02:28:06.819Z,70.19
2022-10-18T02:30:09.956Z,69.96
2022-10-18T02:32:34.640Z,69.98
2022-10-18T02:34:42.707Z,70.15
2022-10-18T02:36:50.132Z,70.30
2022-10-18T02:38:56.255Z,70.57
2022-10-18T02:40:58.987Z,70.70
2022-10-18T02:43:00.716Z,70.89
2022-10-18T02:45:02.725Z,70.57
2022-10-18T02:47:05.959Z,70.75
2022-10-18T02:49:07.967Z,71.23
2022-10-18T02:51:10.178Z,70.72
2022-10-18T02:53:11.864Z,70.51
2022-10-18T02:55:14.085Z,70.32
2022-10-18T02:57:15.742Z,69.92
2022-10-18T02:59:18.048Z,69.56
2022-10-18T03:01:19.793Z,69.63
2022-10-18T03:03:26.051Z,69.89
2022-10-18T03:05:27.842Z,69.91
2022-10-18T03:07:29.625Z,69.94
2022-10-18T03:09:31.718Z,69.83
2022-10-18T03:11:33.539Z,69.91
2022-10-18T03:13:35.187Z,69.97
2022-10-18T03:15:37.169Z,70.02
2022-10-18T03:17:38.807Z,70.21
2022-10-18T03:19:40.534Z,70.44
2022-10-18T03:21:42.244Z,70.45
2022-10-18T03:23:43.965Z,70.66
2022-10-18T03:25:46.452Z,70.56
2022-10-18T03:27:48.207Z,70.58
2022-10-18T03:29:49.944Z,70.98
2022-10-18T03:31:51.566Z,70.85
2022-10-18T03:33:53.241Z,70.95
2022-10-18T03:35:54.937Z,70.67
2022-10-18T03:37:56.593Z,70.87
2022-10-18T03:39:58.393Z,71.10
2022-10-18T03:42:00.094Z,71.14
2022-10-18T03:44:01.733Z,71.08
2022-10-18T03:46:03.495Z,71.28
2022-10-18T03:48:05.343Z,71.29
2022-10-18T03:50:08.196Z,70.86
2022-10-18T03:52:10.122Z,70.96
2022-10-18T03:54:11.744Z,70.64
2022-10-18T03:56:13.399Z,70.84
2022-10-18T03:58:17.185Z,70.80
2022-10-18T04:00:18.880Z,70.78
2022-10-18T04:02:20.564Z,70.69
2022-10-18T04:04:22.293Z,70.83
2022-10-18T04:06:23.988Z,70.37
2022-10-18T04:08:25.664Z,70.38
2022-10-18T04:10:27.461Z,70.50
2022-10-18T04:12:29.327Z,70.40
2022-10-18T04:14:31.188Z,70.54
2022-10-18T04:16:33.451Z,70.55
2022-10-18T04:18:35.127Z,70.57
2022-10-18T04:20:36.815Z,70.65
2022-10-18T04:22:38.546Z,70.45
2022-10-18T04:24:40.172Z,70.31
2022-10-18T04:26:41.784Z,70.52
2022-10-18T04:28:44.259Z,70.34
2022-10-18T04:30:53.186Z,70.48
2022-10-18T04:32:54.869Z,70.55
2022-10-18T04:34:56.566Z,70.56
2022-10-18T04:36:58.204Z,70.41
2022-10-18T04:38:59.882Z,70.78
2022-10-18T04:41:01.699Z,70.50
2022-10-18T04:43:03.430Z,70.79
2022-10-18T04:45:05.462Z,71.02
2022-10-18T04:47:07.078Z,70.74
2022-10-18T04:49:08.702Z,70.54
2022-10-18T04:51:10.371Z,70.59
2022-10-18T04:53:12.048Z,70.80
2022-10-18T04:55:13.728Z,71.04
2022-10-18T04:57:15.593Z,71.10
2022-10-18T04:59:17.454Z,71.20
2022-10-18T05:01:19.349Z,71.75
2022-10-18T05:03:27.641Z,71.49
2022-10-18T05:05:50.039Z,71.20
2022-10-18T05:07:50.973Z,71.26
2022-10-18T05:09:52.695Z,71.38
2022-10-18T05:11:54.341Z,71.66
2022-10-18T05:13:56.091Z,71.67
2022-10-18T05:15:59.592Z,72.11
2022-10-18T05:18:01.296Z,72.16
2022-10-18T05:20:04.320Z,71.83
2022-10-18T05:22:06.258Z,71.81
2022-10-18T05:24:07.872Z,71.71
2022-10-18T05:26:09.715Z,71.81
2022-10-18T05:28:37.989Z,71.62
2022-10-18T05:30:34.166Z,71.32
2022-10-18T05:32:35.812Z,71.37
2022-10-18T05:34:37.520Z,71.49
2022-10-18T05:36:39.234Z,71.53
2022-10-18T05:38:42.978Z,71.67
2022-10-18T05:40:44.987Z,71.64
2022-10-18T05:42:46.685Z,71.35
2022-10-18T05:44:48.511Z,71.36
2022-10-18T05:46:50.176Z,71.36
2022-10-18T05:48:52.426Z,70.95
2022-10-18T05:50:54.127Z,71.03
2022-10-18T05:53:02.732Z,70.79
2022-10-18T05:55:14.474Z,70.65
2022-10-18T05:57:16.083Z,70.92
2022-10-18T05:59:17.734Z,70.74
2022-10-18T06:01:19.447Z,70.68
2022-10-18T06:03:32.288Z,71.01
2022-10-18T06:05:34.038Z,71.36
2022-10-18T06:07:35.747Z,71.06
2022-10-18T06:09:38.485Z,71.04
2022-10-18T06:11:40.223Z,71.23
2022-10-18T06:13:47.091Z,71.17
2022-10-18T06:15:48.892Z,71.05
2022-10-18T06:17:50.532Z,70.69
2022-10-18T06:19:52.258Z,70.99
2022-10-18T06:21:54.003Z,71.14
2022-10-18T06:23:57.964Z,71.23
2022-10-18T06:26:01.985Z,71.06
2022-10-18T06:28:09.038Z,71.40
2022-10-18T06:30:13.264Z,71.20
2022-10-18T06:32:14.970Z,71.12
2022-10-18T06:34:16.665Z,70.96
2022-10-18T06:36:24.154Z,70.88
2022-10-18T06:38:26.587Z,70.70
2022-10-18T06:40:30.920Z,70.89
2022-10-18T06:42:32.981Z,70.83
2022-10-18T06:44:34.805Z,70.99
2022-10-18T06:46:36.509Z,70.86
2022-10-18T06:48:39.057Z,71.22
2022-10-18T06:50:40.940Z,71.40
2022-10-18T06:52:42.601Z,70.76
2022-10-18T06:54:45.390Z,70.69
2022-10-18T06:56:47.248Z,70.20
2022-10-18T06:58:49.031Z,70.33
2022-10-18T07:00:50.728Z,70.66
2022-10-18T07:02:52.381Z,70.68
2022-10-18T07:04:54.100Z,70.88
2022-10-18T07:06:55.816Z,70.65
2022-10-18T07:08:57.642Z,71.13
2022-10-18T07:10:59.773Z,71.12
2022-10-18T07:13:20.032Z,71.24
2022-10-18T07:15:24.409Z,71.13
2022-10-18T07:17:27.467Z,71.38
2022-10-18T07:19:29.088Z,71.09
2022-10-18T07:21:31.506Z,71.36
2022-10-18T07:23:39.445Z,71.35
2022-10-18T07:25:41.134Z,71.32
2022-10-18T07:27:43.654Z,70.95
2022-10-18T07:29:45.272Z,70.96
2022-10-18T07:31:46.883Z,71.29
2022-10-18T07:33:48.542Z,71.35
2022-10-18T07:35:50.274Z,71.60
2022-10-18T07:37:52.017Z,71.46
2022-10-18T07:39:53.690Z,71.45
2022-10-18T07:41:55.369Z,71.67
2022-10-18T07:43:57.061Z,71.54
2022-10-18T07:46:01.822Z,71.78
2022-10-18T07:48:03.629Z,72.13
2022-10-18T07:50:05.933Z,71.84
2022-10-18T07:52:07.647Z,72.12
2022-10-18T07:54:09.772Z,72.08
2022-10-18T07:56:17.133Z,72.33
2022-10-18T07:58:18.872Z,72.14
2022-10-18T08:00:20.738Z,71.91
2022-10-18T08:02:23.952Z,72.42
2022-10-18T08:04:31.224Z,72.08
2022-10-18T08:06:33.198Z,71.96
2022-10-18T08:08:38.987Z,71.90
2022-10-18T08:10:40.735Z,72.05
2022-10-18T08:12:42.719Z,72.27
2022-10-18T08:14:44.582Z,72.00
2022-10-18T08:16:46.231Z,72.09
2022-10-18T08:18:48.147Z,72.04
2022-10-18T08:20:49.858Z,72.42
2022-10-18T08:22:53.086Z,72.31
2022-10-18T08:24:57.106Z,72.36
2022-10-18T08:26:58.809Z,72.22
2022-10-18T08:29:10.663Z,72.44
2022-10-18T08:31:20.224Z,72.30
2022-10-18T08:33:26.819Z,72.72
2022-10-18T08:35:28.491Z,72.04
2022-10-18T08:37:30.651Z,72.38
2022-10-18T08:39:33.049Z,72.48
2022-10-18T08:41:44.292Z,72.70
2022-10-18T08:43:51.921Z,72.31
2022-10-18T08:45:55.253Z,72.42
2022-10-18T08:47:57.954Z,72.09
2022-10-18T08:50:06.266Z,71.79
2022-10-18T08:52:19.297Z,71.41
2022-10-18T08:55:01.151Z,71.23
2022-10-18T08:57:10.317Z,71.23
2022-10-18T08:59:13.419Z,70.80
2022-10-18T09:01:34.536Z,70.46
2022-10-18T09:04:23.459Z,68.52
2022-10-18T09:06:34.707Z,67.19
2022-10-18T09:08:59.816Z,65.86
2022-10-18T09:11:26.078Z,65.78
2022-10-18T09:13:46.075Z,65.19
2022-10-18T09:16:06.247Z,64.81
2022-10-18T09:18:48.197Z,63.84
2022-10-18T09:20:58.587Z,62.52
2022-10-18T09:23:35.685Z,62.95
2022-10-18T09:25:49.771Z,62.04
2022-10-18T09:27:57.446Z,61.71
2022-10-18T09:30:10.382Z,61.63
2022-10-18T09:32:19.671Z,60.05
2022-10-18T09:34:42.867Z,59.81
2022-10-18T09:36:45.559Z,59.67
2022-10-18T09:38:51.511Z,58.63
2022-10-18T09:41:02.500Z,58.56
2022-10-18T09:43:14.539Z,58.51
2022-10-18T09:45:32.568Z,57.89
2022-10-18T09:47:41.551Z,57.67
2022-10-18T09:49:47.538Z,57.69
2022-10-18T09:51:51.600Z,56.74
2022-10-18T09:54:33.175Z,56.13
2022-10-18T09:56:48.304Z,55.62
2022-10-18T09:58:51.605Z,55.20
2022-10-18T10:00:55.167Z,54.99
2022-10-18T10:02:57.609Z,54.53
2022-10-18T10:04:59.283Z,54.26
2022-10-18T10:07:02.438Z,54.31
2022-10-18T10:09:15.517Z,53.90
2022-10-18T10:11:31.207Z,53.76
2022-10-18T10:13:33.320Z,53.21
2022-10-18T10:15:38.278Z,53.09
2022-10-18T10:17:41.025Z,52.87
2022-10-18T10:20:03.735Z,52.68
2022-10-18T10:22:14.506Z,52.64
2022-10-18T10:24:42.216Z,52.15
2022-10-18T10:26:43.928Z,51.75
2022-10-18T10:28:49.013Z,52.18
2022-10-18T10:30:50.969Z,52.17
2022-10-18T10:32:54.232Z,50.58
2022-10-18T10:34:56.720Z,50.13
2022-10-18T10:36:59.054Z,49.47
2022-10-18T10:39:12.939Z,49.04
2022-10-18T10:41:24.233Z,48.83
2022-10-18T10:43:38.612Z,48.34
2022-10-18T10:46:09.517Z,47.62
2022-10-18T10:48:16.932Z,47.22
2022-10-18T10:50:29.421Z,48.05
2022-10-18T10:52:31.689Z,46.92
2022-10-18T10:54:37.121Z,46.54
2022-10-18T10:56:51.678Z,46.39
2022-10-18T10:58:55.567Z,46.89
2022-10-18T11:00:58.867Z,45.78
2022-10-18T11:03:35.603Z,45.87
2022-10-18T11:05:48.628Z,45.98
2022-10-18T11:08:02.913Z,45.56
2022-10-18T11:10:12.620Z,45.47
2022-10-18T11:12:34.253Z,45.61
2022-10-18T11:14:41.747Z,46.20
2022-10-18T11:17:17.536Z,45.21
2022-10-18T11:19:51.315Z,45.23
2022-10-18T11:21:53.904Z,45.23
2022-10-18T11:23:57.275Z,44.96
2022-10-18T11:26:07.861Z,45.51
2022-10-18T11:28:24.065Z,44.99
2022-10-18T11:30:42.889Z,44.84
2022-10-18T11:32:58.090Z,44.90
2022-10-18T11:35:05.825Z,44.80
2022-10-18T11:37:29.099Z,44.62
2022-10-18T11:39:48.144Z,44.53
2022-10-18T11:41:52.314Z,44.58
2022-10-18T11:44:04.034Z,44.44
2022-10-18T11:46:20.941Z,44.11
2022-10-18T11:48:58.986Z,43.77
2022-10-18T11:51:10.485Z,43.70
2022-10-18T11:53:59.431Z,44.17
2022-10-18T11:56:30.113Z,43.79
2022-10-18T11:58:51.992Z,43.85
2022-10-18T12:01:40.890Z,43.52
2022-10-18T12:04:12.766Z,43.62
2022-10-18T12:06:21.984Z,43.60
2022-10-18T12:08:34.546Z,43.75
2022-10-18T12:10:44.347Z,43.73
2022-10-18T12:13:02.182Z,43.64
2022-10-18T12:15:13.952Z,43.45
2022-10-18T12:17:41.113Z,43.37
2022-10-18T12:19:41.950Z,43.40
2022-10-18T12:21:43.808Z,43.30
2022-10-18T12:23:54.050Z,43.05
2022-10-18T12:26:02.229Z,43.15
2022-10-18T12:28:48.765Z,43.08
2022-10-18T12:31:22.827Z,43.34
2022-10-18T12:33:30.748Z,43.14
2022-10-18T12:35:44.423Z,42.53
2022-10-18T12:38:21.793Z,42.70
2022-10-18T12:40:43.438Z,42.34
2022-10-18T12:42:50.997Z,41.86
2022-10-18T12:45:35.413Z,41.75
2022-10-18T12:47:38.016Z,41.63
2022-10-18T12:49:42.608Z,41.06
2022-10-18T12:51:59.440Z,40.67
2022-10-18T12:54:01.029Z,40.29
2022-10-18T12:56:30.922Z,40.29
2022-10-18T12:58:33.082Z,40.58
2022-10-18T13:00:34.727Z,41.21
2022-10-18T13:02:36.740Z,40.97
2022-10-18T13:04:38.619Z,40.44
2022-10-18T13:07:03.079Z,40.45
2022-10-18T13:09:20.466Z,39.90
2022-10-18T13:11:33.559Z,40.40
2022-10-18T13:13:41.849Z,40.91
2022-10-18T13:15:52.470Z,41.37
2022-10-18T13:17:59.788Z,41.02
2022-10-18T13:20:25.507Z,41.33
2022-10-18T13:23:05.139Z,41.82
2022-10-18T13:25:21.205Z,40.63
2022-10-18T13:27:35.928Z,40.50
2022-10-18T13:29:47.884Z,40.50
2022-10-18T13:34:45.833Z,40.46
2022-10-18T13:37:00.263Z,40.99
2022-10-18T13:39:05.285Z,41.40
2022-10-18T13:43:55.003Z,41.12
2022-10-18T13:45:56.734Z,41.08
2022-10-18T13:48:30.056Z,40.13
2022-10-18T13:50:36.388Z,40.08
2022-10-18T13:53:09.517Z,40.40
2022-10-18T13:55:38.634Z,40.29
2022-10-18T13:58:04.912Z,40.08
2022-10-18T14:00:48.165Z,40.16
2022-10-18T14:06:22.600Z,39.49
2022-10-18T14:08:37.063Z,39.58
2022-10-18T14:11:03.673Z,39.56
2022-10-18T14:13:07.344Z,39.83
2022-10-18T14:15:39.688Z,39.81
2022-10-18T14:18:16.380Z,39.90
2022-10-18T14:20:49.092Z,39.84
2022-10-18T14:22:54.494Z,40.00
2022-10-18T14:24:59.011Z,40.41
2022-10-18T14:27:20.356Z,40.43
2022-10-18T14:29:22.200Z,40.48
2022-10-18T14:31:23.905Z,40.37
2022-10-18T14:33:39.534Z,40.15
2022-10-18T14:35:41.986Z,40.08
2022-10-18T14:37:44.174Z,39.89
2022-10-18T14:39:46.813Z,39.68
2022-10-18T14:41:54.330Z,40.11
2022-10-18T14:44:14.560Z,39.85
2022-10-18T14:46:22.174Z,39.33
2022-10-18T14:48:24.055Z,38.53
2022-10-18T14:50:30.533Z,39.31
2022-10-18T14:52:35.697Z,39.47
2022-10-18T14:54:38.242Z,39.78
2022-10-18T14:56:41.637Z,40.00
2022-10-18T14:58:43.482Z,39.55
2022-10-18T15:00:48.545Z,39.47
2022-10-18T15:02:50.863Z,39.95
2022-10-18T15:04:58.885Z,39.96
2022-10-18T15:07:03.149Z,40.52
2022-10-18T15:09:05.903Z,40.76
2022-10-18T15:11:11.860Z,40.82
2022-10-18T15:13:32.033Z,41.15
2022-10-18T15:15:35.468Z,40.94
2022-10-18T15:17:37.232Z,41.68
2022-10-18T15:19:42.982Z,41.14
2022-10-18T15:24:27.302Z,41.65
2022-10-18T15:26:30.601Z,41.65
2022-10-18T15:28:32.284Z,41.87
2022-10-18T15:30:44.149Z,42.11
2022-10-18T15:33:00.158Z,42.03
2022-10-18T15:35:32.237Z,42.91
2022-10-18T15:37:43.273Z,43.76
2022-10-18T15:39:45.026Z,43.91
2022-10-18T15:41:57.968Z,44.19
2022-10-18T15:44:22.773Z,44.39
2022-10-18T15:46:32.133Z,44.90
2022-10-18T15:48:39.682Z,45.11
2022-10-18T15:50:41.546Z,44.89
2022-10-18T15:52:43.925Z,45.53
2022-10-18T15:54:45.700Z,45.55
2022-10-18T15:56:47.585Z,45.54
2022-10-18T15:58:50.796Z,45.74
2022-10-18T16:00:56.655Z,45.94
2022-10-18T16:02:58.355Z,46.09
2022-10-18T16:05:01.783Z,45.89
2022-10-18T16:07:03.422Z,45.98
2022-10-18T16:09:05.808Z,46.19
2022-10-18T16:11:18.429Z,46.50
2022-10-18T16:13:28.433Z,46.95
2022-10-18T16:15:30.156Z,47.45
2022-10-18T16:17:32.186Z,47.51
2022-10-18T16:19:34.292Z,47.80
2022-10-18T16:21:38.272Z,48.19
2022-10-18T16:23:39.929Z,48.39
2022-10-18T16:25:41.570Z,49.02
2022-10-18T16:27:43.783Z,49.06
2022-10-18T16:29:45.435Z,49.50
2022-10-18T16:31:48.137Z,49.93
2022-10-18T16:33:51.463Z,49.95
2022-10-18T16:35:53.665Z,49.79
2022-10-18T16:37:55.357Z,49.83
2022-10-18T16:39:57.023Z,50.03
2022-10-18T16:41:58.637Z,49.83
2022-10-18T16:44:00.297Z,50.04
2022-10-18T16:46:03.254Z,50.07
2022-10-18T16:48:05.454Z,50.37
2022-10-18T16:50:08.724Z,50.24
2022-10-18T16:52:10.439Z,50.33
2022-10-18T16:54:12.190Z,50.54
2022-10-18T16:56:17.812Z,50.83
2022-10-18T16:58:20.047Z,50.51
2022-10-18T17:00:23.410Z,50.47
2022-10-18T17:02:25.097Z,50.35
2022-10-18T17:04:26.823Z,50.14
2022-10-18T17:06:31.804Z,50.38
2022-10-18T17:08:33.525Z,50.20
2022-10-18T17:10:35.234Z,50.02
2022-10-18T17:12:36.939Z,49.80
2022-10-18T17:14:38.651Z,49.87
2022-10-18T17:16:40.352Z,49.53
2022-10-18T17:18:41.970Z,49.15
2022-10-18T17:20:44.259Z,49.25
2022-10-18T17:22:45.923Z,49.56
2022-10-18T17:24:47.650Z,49.61
2022-10-18T17:26:49.304Z,49.63
2022-10-18T17:28:56.007Z,49.64
2022-10-18T17:30:57.677Z,49.91
2022-10-18T17:32:59.433Z,49.22
2022-10-18T17:35:01.087Z,49.33
2022-10-18T17:37:04.000Z,49.11
2022-10-18T17:39:05.760Z,49.11
2022-10-18T17:41:11.306Z,49.06
2022-10-18T17:43:13.833Z,48.87
2022-10-18T17:45:15.696Z,49.22
2022-10-18T17:47:17.448Z,49.52
2022-10-18T17:49:19.149Z,49.25
2022-10-18T17:51:21.379Z,49.55
2022-10-18T17:53:40.148Z,49.29
2022-10-18T17:55:41.849Z,48.79
2022-10-18T17:57:44.177Z,48.94
2022-10-18T17:59:47.815Z,48.69
2022-10-18T18:01:49.524Z,48.47
2022-10-18T18:03:59.756Z,48.68
2022-10-18T18:06:13.789Z,48.09
2022-10-18T18:08:19.337Z,47.89
2022-10-18T18:10:21.127Z,47.82
2022-10-18T18:12:37.892Z,47.52
2022-10-18T18:14:40.533Z,47.28
2022-10-18T18:16:46.287Z,47.33
2022-10-18T18:18:51.320Z,47.39
2022-10-18T18:20:55.132Z,46.92
2022-10-18T18:22:57.803Z,47.13
2022-10-18T18:24:59.762Z,46.94
2022-10-18T18:27:01.506Z,46.72
2022-10-18T18:29:04.389Z,46.76
2022-10-18T18:31:23.594Z,46.35
2022-10-18T18:33:40.221Z,46.88
2022-10-18T18:35:41.934Z,46.32
2022-10-18T18:37:43.788Z,45.95
2022-10-18T18:39:45.631Z,46.40
2022-10-18T18:41:49.811Z,45.79
2022-10-18T18:43:57.678Z,46.20
2022-10-18T18:45:59.479Z,46.27
2022-10-18T18:48:01.188Z,46.32
2022-10-18T18:50:02.881Z,46.53
2022-10-18T18:52:04.710Z,46.71
2022-10-18T18:54:12.345Z,46.35
2022-10-18T18:56:17.058Z,46.18
2022-10-18T18:58:19.211Z,46.45
2022-10-18T19:00:20.812Z,46.46
2022-10-18T19:02:22.513Z,46.35
2022-10-18T19:04:24.229Z,46.80
2022-10-18T19:06:36.934Z,46.93
2022-10-18T19:08:41.605Z,46.70
2022-10-18T19:10:52.714Z,46.85
2022-10-18T19:12:54.484Z,47.08
2022-10-18T19:14:56.161Z,46.91
2022-10-18T19:17:02.544Z,47.08
2022-10-18T19:19:06.176Z,47.19
2022-10-18T19:21:07.841Z,47.38
2022-10-18T19:23:09.647Z,47.14
2022-10-18T19:25:11.932Z,47.58
2022-10-18T19:27:13.755Z,47.88
2022-10-18T19:29:24.118Z,49.26
2022-10-18T19:31:25.863Z,49.42
2022-10-18T19:33:47.835Z,50.39
2022-10-18T19:35:50.435Z,50.76
2022-10-18T19:37:53.329Z,51.00
2022-10-18T19:39:55.121Z,50.99
2022-10-18T19:41:58.790Z,50.55
2022-10-18T19:44:00.470Z,51.06
2022-10-18T19:46:04.032Z,50.85
2022-10-18T19:48:06.268Z,50.91
2022-10-18T19:50:09.347Z,50.94
2022-10-18T19:52:12.496Z,51.74
2022-10-18T19:54:15.226Z,51.68
2022-10-18T19:56:19.739Z,52.22
2022-10-18T19:58:21.373Z,53.10
2022-10-18T20:00:23.065Z,53.86
2022-10-18T20:02:24.745Z,54.17
2022-10-18T20:04:28.913Z,54.71
2022-10-18T20:06:35.418Z,55.42
2022-10-18T20:08:38.117Z,55.90
2022-10-18T20:10:39.830Z,55.85
2022-10-18T20:12:41.538Z,56.05
2022-10-18T20:14:59.702Z,56.98
2022-10-18T20:17:01.367Z,56.97
2022-10-18T20:19:05.742Z,57.66
2022-10-18T20:21:08.152Z,57.58
2022-10-18T20:23:10.002Z,57.92
2022-10-18T20:25:11.743Z,58.03
2022-10-18T20:27:13.434Z,58.47
2022-10-18T20:29:15.238Z,58.61
2022-10-18T20:31:19.079Z,59.06
2022-10-18T20:33:20.885Z,59.34
2022-10-18T20:35:22.659Z,59.25
2022-10-18T20:37:24.491Z,59.16
2022-10-18T20:39:26.350Z,59.63
2022-10-18T20:41:36.826Z,59.61
2022-10-18T20:43:39.097Z,59.75
2022-10-18T20:45:40.883Z,59.61
2022-10-18T20:47:42.851Z,59.96
2022-10-18T20:49:44.539Z,59.81
2022-10-18T20:51:46.233Z,60.38
2022-10-18T20:53:48.067Z,60.31
2022-10-18T20:55:50.251Z,60.42
2022-10-18T20:57:52.144Z,60.31
2022-10-18T20:59:53.765Z,60.43
2022-10-18T21:01:55.415Z,60.60
2022-10-18T21:04:00.068Z,60.26
2022-10-18T21:06:02.475Z,60.42
2022-10-18T21:08:04.212Z,60.56
2022-10-18T21:10:06.424Z,60.46
2022-10-18T21:12:08.125Z,60.50
2022-10-18T21:14:13.643Z,60.88
2022-10-18T21:16:15.298Z,60.34
2022-10-18T21:18:16.943Z,60.98
2022-10-18T21:20:19.010Z,60.48
2022-10-18T21:22:20.646Z,60.79
2022-10-18T21:24:24.004Z,60.60
2022-10-18T21:26:27.326Z,60.74
2022-10-18T21:28:29.011Z,61.10
2022-10-18T21:30:30.748Z,61.35
2022-10-18T21:32:32.594Z,61.10
2022-10-18T21:34:34.386Z,60.49
2022-10-18T21:36:37.119Z,60.87
2022-10-18T21:38:39.365Z,61.04
2022-10-18T21:40:44.680Z,61.19
2022-10-18T21:42:46.531Z,60.93
2022-10-18T21:44:48.141Z,61.42
2022-10-18T21:46:50.047Z,61.15
2022-10-18T21:48:53.206Z,61.63
2022-10-18T21:50:55.112Z,61.69
2022-10-18T21:52:56.721Z,61.63
2022-10-18T21:54:58.427Z,62.04
2022-10-18T21:57:00.027Z,61.90
2022-10-18T21:59:02.043Z,61.80
2022-10-18T22:01:17.523Z,61.62
2022-10-18T22:03:33.414Z,61.56
2022-10-18T22:05:37.396Z,61.72
2022-10-18T22:07:39.112Z,61.34
2022-10-18T22:09:41.432Z,61.47
2022-10-18T22:11:47.020Z,61.96
2022-10-18T22:13:48.999Z,61.80
2022-10-18T22:15:50.686Z,62.20
2022-10-18T22:17:57.504Z,62.00
2022-10-18T22:20:01.627Z,62.42
2022-10-18T22:22:06.020Z,62.15
2022-10-18T22:24:09.425Z,62.48
2022-10-18T22:26:17.386Z,62.25
2022-10-18T22:28:19.047Z,62.41
2022-10-18T22:30:20.733Z,62.52
2022-10-18T22:32:22.500Z,62.66
2022-10-18T22:34:31.440Z,62.53
2022-10-18T22:36:33.842Z,62.62
2022-10-18T22:38:37.775Z,62.79
2022-10-18T22:40:39.414Z,62.92
2022-10-18T22:42:41.063Z,62.62
2022-10-18T22:44:42.671Z,62.49
2022-10-18T22:46:44.381Z,62.62
2022-10-18T22:48:46.581Z,62.68
2022-10-18T22:50:48.310Z,63.24
2022-10-18T22:52:51.544Z,63.15
2022-10-18T22:54:55.670Z,63.11
2022-10-18T22:56:57.280Z,63.01
2022-10-18T22:58:58.880Z,63.47
2022-10-18T23:01:12.234Z,63.31
2022-10-18T23:03:26.629Z,63.30
2022-10-18T23:05:28.262Z,63.07
2022-10-18T23:07:29.940Z,63.66
2022-10-18T23:09:31.632Z,63.26
2022-10-18T23:11:35.190Z,64.06
2022-10-18T23:13:39.486Z,63.83
2022-10-18T23:15:41.479Z,64.20
2022-10-18T23:17:43.205Z,64.31
2022-10-18T23:19:44.829Z,64.27
2022-10-18T23:21:46.486Z,64.52
2022-10-18T23:23:48.151Z,64.08
2022-10-18T23:25:54.201Z,64.55
2022-10-18T23:27:57.467Z,64.67
2022-10-18T23:29:59.096Z,64.65
2022-10-18T23:32:01.076Z,64.66
2022-10-18T23:34:05.345Z,64.71
2022-10-18T23:36:09.261Z,64.76
2022-10-18T23:38:10.906Z,64.79
2022-10-18T23:40:12.792Z,65.15
2022-10-18T23:42:14.435Z,64.96
2022-10-18T23:44:16.280Z,65.04
2022-10-18T23:46:18.692Z,65.09
2022-10-18T23:48:20.709Z,65.27
2022-10-18T23:50:22.419Z,65.17
2022-10-18T23:52:24.871Z,65.29
2022-10-18T23:54:26.601Z,64.81
2022-10-18T23:56:28.259Z,64.78
2022-10-18T23:58:31.458Z,65.05
